METAR Reports

 

KMRH - Beaufort, North Carolina, USA
Distance from station: E 8mi, 12km
Updated: Fri, 01-Jul-2022 10:58pm EDT
Few Clouds
Few Clouds
 Wind from S
Wind: S 8 mph , 13 km/h
Temperature: 79°F , 26°C
Dew Point: 73°F , 23°C
Humidity: 84%
Barometer: 30.10 inHg , 1019.3 hPa
Clouds: Few Clouds
Visibility: 10 miles , 16 km
Cloud details: Few Clouds 1800 ft
2022/07/02 02:58 KMRH 020258Z AUTO 18007KT 10SM FEW018 26/23 A3010 RMK AO2 SLP192 T02610228 56005 TSNO
KEWN - New Bern, North Carolina, USA
Distance from station: NW 33mi, 40km
Updated: Fri, 01-Jul-2022 10:54pm EDT
Clear
Clear
 Wind from calm
Wind: Calm
Temperature: 72°F , 22°C
Dew Point: 72°F , 22°C
Humidity: 100%
Barometer: 30.11 inHg , 1019.6 hPa
Clouds: Clear
Visibility: 10 miles , 16 km
2022/07/02 02:54 KEWN 020254Z AUTO 00000KT 10SM CLR 22/22 A3011 RMK AO2 SLP195 T02220217 55002
 
KPGV - Greenville, North Carolina, USA
Updated: Fri, 01-Jul-2022 10:55pm EDT
Clear
Clear
 Wind from SSW
Wind: SSW 3 mph , 6 km/h
Temperature: 77°F , 25°C
Dew Point: 73°F , 23°C
Humidity: 89%
Barometer: 30.09 inHg , 1019 hPa
Clouds: Clear
Visibility: 10 miles , 16 km
2022/07/02 02:55 KPGV 020255Z AUTO 20003KT 10SM CLR 25/23 A3009 RMK AO2
KOAJ - Richlands, North Carolina, USA
Updated: Fri, 01-Jul-2022 10:56pm EDT
Clear
Clear
 Wind from calm
Wind: Calm
Temperature: 72°F , 22°C
Dew Point: 72°F , 22°C
Humidity: 100%
Barometer: 30.10 inHg , 1019.3 hPa
Clouds: Clear
Visibility: 10 miles , 16 km
2022/07/02 02:56 KOAJ 020256Z AUTO 00000KT 10SM CLR 22/22 A3010 RMK AO2 SLP196 T02220217 53000
 
KISO - Kinston, North Carolina, USA
Distance from station: NW 73mi, 87km
Updated: Fri, 01-Jul-2022 10:55pm EDT
Clear
Clear
 Wind from SSW
Wind: SSW 3 mph , 6 km/h
Temperature: 73°F , 23°C
Dew Point: 72°F , 22°C
Humidity: 94%
Barometer: 30.10 inHg , 1019.3 hPa
Clouds: Clear
Visibility: 10 miles , 16 km
2022/07/02 02:55 KISO 020255Z AUTO 20003KT 10SM CLR 23/22 A3010 RMK AO2 T02260220
KHSE - Buxton, North Carolina, USA
Distance from station: NE 89mi, 102km
Updated: Fri, 01-Jul-2022 10:51pm EDT
Clear
Clear
 Wind from SW
Wind: SW 9 mph , 15 km/h
Temperature: 81°F , 27°C
Heat Index: 85°F , 29°C
Dew Point: 72°F , 22°C
Humidity: 74%
Barometer: 30.10 inHg , 1019.3 hPa
Clouds: Clear
Visibility: 10 miles , 16 km
2022/07/02 02:51 KHSE 020251Z AUTO 23008KT 10SM CLR 27/22 A3010 RMK AO2 SLP191 T02670217 55006
 
KNCA - Jacksonville, North Carolina, USA
Distance from station: SW 48mi, 60km
Updated: Fri, 01-Jul-2022 10:56pm EDT
Clear
Clear
 Wind from calm
Wind: Calm
Temperature: 73°F , 23°C
Dew Point: 72°F , 22°C
Humidity: 94%
Barometer: 30.09 inHg , 1019 hPa
Clouds: Clear
Visibility: 10 miles , 16 km
2022/07/02 02:56 KNCA 020256Z AUTO 00000KT 10SM CLR 23/22 A3009 RMK AO2 SLP190 T02330222 56002
KNKT - Cherry Point, North Carolina, USA
Distance from station: NW 9mi, 12km
Updated: Fri, 01-Jul-2022 10:56pm EDT
Partly Cloudy
Partly Cloudy
 Wind from calm
Wind: Calm
Temperature: 73°F , 23°C
Dew Point: 72°F , 22°C
Humidity: 94%
Barometer: 30.11 inHg , 1019.6 hPa
Clouds: Partly Cloudy
Visibility: 10 miles , 16 km
Cloud details: Partly Cloudy 2000 ft
2022/07/02 02:56 KNKT 020256Z 00000KT 10SM SCT020 23/22 A3011 RMK AO2 SLP192 T02330217 56002
 
KOCW - Washington, North Carolina, USA
Distance from station: N 73mi, 87km
Updated: Fri, 01-Jul-2022 10:55pm EDT
Clear
Clear
 Wind from S
Wind: S 5 mph , 7 km/h
Temperature: 75°F , 24°C
Dew Point: 72°F , 22°C
Humidity: 89%
Barometer: 30.10 inHg , 1019.3 hPa
Clouds: Clear
Visibility: 10 miles , 16 km
2022/07/02 02:55 KOCW 020255Z AUTO 17004KT 10SM CLR 24/22 A3010 RMK AO2 T02410218
KDPL - Kenansville, North Carolina, USA
Distance from station: W 86mi, 98km
Updated: Fri, 01-Jul-2022 10:55pm EDT
Clear
Clear
 
Temperature: 72°F , 22°C
Dew Point: 72°F , 22°C
Humidity: 100%
Barometer: 30.10 inHg , 1019.3 hPa
Clouds: Clear
Visibility: 10 miles , 16 km
2022/07/02 02:55 KDPL 020255Z 10SM CLR 22/22 A3010 RMK AO2
 
KMQI - Manteo, North Carolina, USA
Updated: Fri, 01-Jul-2022 10:55pm EDT
Clear
Clear
 Wind from WSW
Wind: WSW 8 mph , 13 km/h
Temperature: 77°F , 25°C
Dew Point: 72°F , 22°C
Humidity: 83%
Barometer: 30.09 inHg , 1019 hPa
Clouds: Clear
Visibility: 10 miles , 16 km
2022/07/02 02:55 KMQI 020255Z AUTO 24007KT 10SM CLR 25/22 A3009 RMK AO2 T02500219
KFFA - Kill Devil Hills, North Carolina, USA
Updated: Fri, 01-Jul-2022 11:15pm EDT
Clear
Clear
 Wind from SW
Wind: SW 5 mph , 7 km/h
Temperature: 77°F , 25°C
Dew Point: 70°F , 21°C
Humidity: 79%
Barometer: 30.08 inHg , 1018.6 hPa
Clouds: Clear
Visibility: 10 miles , 16 km
2022/07/02 03:15 KFFA 020315Z AUTO 23004KT 10SM CLR 25/21 A3008 RMK AO2 T02490214
 
KILM - Wilmington, North Carolina, USA
Updated: Fri, 01-Jul-2022 10:53pm EDT
Clear
Clear
 Wind from SSE
Wind: SSE 5 mph , 7 km/h
Temperature: 75°F , 24°C
Dew Point: 72°F , 22°C
Humidity: 89%
Barometer: 30.08 inHg , 1018.6 hPa
Clouds: Clear
Visibility: 10 miles , 16 km
2022/07/02 02:53 KILM 020253Z AUTO 16004KT 10SM CLR 24/22 A3008 RMK AO2 SLP187 LAST T02440222 56006
KRDU - Raleigh, North Carolina, USA
Updated: Fri, 01-Jul-2022 10:51pm EDT
Partly Cloudy
Partly Cloudy
 Wind from SW
Wind: SW 7 mph , 11 km/h
Temperature: 75°F , 24°C
Dew Point: 72°F , 22°C
Humidity: 89%
Barometer: 30.10 inHg , 1019.3 hPa
Clouds: Partly Cloudy
Visibility: 10 miles , 16 km
Cloud details: Few Clouds 1400 ft
Partly Cloudy 25000 ft
2022/07/02 02:51 KRDU 020251Z 22006KT 10SM FEW014 SCT250 24/22 A3010 RMK AO2 SLP187 T02390217 53004